createdAt,value
2022-12-31T00:00:25.421Z,3.08
2022-12-31T00:02:52.954Z,1.00
2022-12-31T00:05:19.630Z,1.83
2022-12-31T00:07:47.140Z,1.23
2022-12-31T00:10:14.390Z,1.10
2022-12-31T00:12:41.912Z,1.45
2022-12-31T00:15:09.296Z,1.58
2022-12-31T00:17:36.739Z,0.90
2022-12-31T00:20:03.583Z,1.40
2022-12-31T00:22:31.151Z,2.97
2022-12-31T00:24:58.051Z,2.58
2022-12-31T00:27:27.025Z,3.40
2022-12-31T00:29:53.946Z,1.73
2022-12-31T00:32:21.282Z,2.30
2022-12-31T00:34:48.007Z,3.35
2022-12-31T00:37:15.642Z,3.28
2022-12-31T00:39:42.440Z,1.75
2022-12-31T00:42:09.976Z,1.63
2022-12-31T00:44:36.682Z,1.33
2022-12-31T00:47:04.286Z,2.22
2022-12-31T00:49:31.090Z,1.00
2022-12-31T00:51:58.613Z,2.97
2022-12-31T00:54:25.734Z,0.98
2022-12-31T00:56:53.535Z,2.53
2022-12-31T00:59:20.306Z,1.02
2022-12-31T01:01:50.927Z,0.50
2022-12-31T01:04:20.737Z,0.60
2022-12-31T01:06:48.425Z,0.40
2022-12-31T01:09:17.175Z,0.25
2022-12-31T01:11:45.217Z,0.28
2022-12-31T01:14:15.528Z,3.58
2022-12-31T01:16:46.299Z,0.20
2022-12-31T01:19:20.578Z,0.45
2022-12-31T01:21:49.255Z,1.10
2022-12-31T01:24:17.071Z,0.13
2022-12-31T01:26:45.135Z,0.10
2022-12-31T01:29:12.935Z,0.20
2022-12-31T01:31:40.662Z,0.20
2022-12-31T01:34:08.031Z,1.85
2022-12-31T01:36:36.676Z,0.20
2022-12-31T01:39:07.881Z,0.10
2022-12-31T01:41:38.617Z,0.10
2022-12-31T01:44:14.302Z,1.55
2022-12-31T01:46:56.519Z,0.30
2022-12-31T01:49:40.881Z,0.20
2022-12-31T01:52:32.027Z,0.43
2022-12-31T01:55:16.911Z,0.68
2022-12-31T01:57:47.965Z,4.13
2022-12-31T02:00:15.415Z,0.10
2022-12-31T02:02:44.480Z,1.00
2022-12-31T02:05:25.518Z,0.10
2022-12-31T02:07:54.452Z,0.93
2022-12-31T02:10:21.341Z,0.10
2022-12-31T02:12:49.373Z,0.47
2022-12-31T02:15:25.247Z,0.43
2022-12-31T02:18:07.886Z,0.20
2022-12-31T02:21:03.732Z,1.10
2022-12-31T02:24:06.703Z,0.45
2022-12-31T02:26:40.947Z,1.73
2022-12-31T02:29:10.965Z,0.32
2022-12-31T02:32:21.889Z,0.17
2022-12-31T02:34:56.130Z,0.57
2022-12-31T02:37:28.114Z,0.20
2022-12-31T02:39:55.611Z,0.93
2022-12-31T02:42:23.097Z,0.40
2022-12-31T02:44:52.420Z,0.85
2022-12-31T02:48:04.178Z,1.27
2022-12-31T02:50:55.578Z,0.22
2022-12-31T02:54:07.778Z,0.98
2022-12-31T02:56:45.332Z,0.68
2022-12-31T02:59:56.819Z,0.40
2022-12-31T03:02:28.282Z,4.22
2022-12-31T03:04:58.343Z,1.15
2022-12-31T03:07:32.131Z,2.03
2022-12-31T03:10:01.064Z,1.38
2022-12-31T03:12:47.666Z,4.70
2022-12-31T03:15:23.995Z,1.17
2022-12-31T03:18:11.762Z,4.38
2022-12-31T03:21:09.340Z,4.95
2022-12-31T03:23:42.489Z,0.63
2022-12-31T03:26:11.850Z,0.40
2022-12-31T03:28:41.858Z,2.35
2022-12-31T03:31:09.099Z,1.80
2022-12-31T03:33:39.208Z,2.60
2022-12-31T03:36:09.346Z,0.65
2022-12-31T03:38:39.916Z,1.95
2022-12-31T03:41:06.710Z,1.50
2022-12-31T03:43:34.042Z,4.30
2022-12-31T03:46:01.677Z,2.22
2022-12-31T03:48:29.232Z,2.00
2022-12-31T03:50:56.069Z,2.47
2022-12-31T03:53:23.461Z,2.08
2022-12-31T03:55:53.754Z,5.93
2022-12-31T03:58:21.701Z,2.85
2022-12-31T04:00:48.826Z,1.10
2022-12-31T04:03:16.243Z,2.80
2022-12-31T04:05:43.055Z,2.03
2022-12-31T04:08:10.408Z,3.20
2022-12-31T04:10:37.028Z,3.47
2022-12-31T04:13:05.023Z,1.52
2022-12-31T04:15:32.384Z,1.55
2022-12-31T04:17:59.693Z,1.67
2022-12-31T04:20:26.323Z,0.85
2022-12-31T04:22:53.359Z,3.58
2022-12-31T04:25:20.098Z,2.70
2022-12-31T04:27:47.927Z,1.88
2022-12-31T04:30:14.562Z,2.85
2022-12-31T04:32:42.926Z,2.55
2022-12-31T04:35:11.156Z,2.67
2022-12-31T04:37:38.975Z,3.55
2022-12-31T04:40:07.451Z,0.93
2022-12-31T04:42:35.531Z,1.85
2022-12-31T04:45:02.299Z,3.10
2022-12-31T04:47:29.872Z,2.70
2022-12-31T04:49:56.558Z,2.72
2022-12-31T04:52:24.019Z,2.17
2022-12-31T04:54:50.709Z,3.30
2022-12-31T04:57:18.079Z,4.68
2022-12-31T04:59:44.833Z,1.90
2022-12-31T05:02:12.256Z,7.05
2022-12-31T05:04:39.003Z,1.90
2022-12-31T05:07:06.404Z,2.30
2022-12-31T05:09:33.102Z,2.22
2022-12-31T05:12:00.459Z,4.63
2022-12-31T05:14:27.112Z,2.97
2022-12-31T05:16:54.834Z,3.35
2022-12-31T05:19:21.489Z,4.47
2022-12-31T05:22:08.757Z,4.35
2022-12-31T05:24:35.407Z,8.82
2022-12-31T05:27:02.571Z,0.75
2022-12-31T05:29:29.924Z,4.72
2022-12-31T05:31:56.512Z,2.10
2022-12-31T05:34:23.908Z,3.88
2022-12-31T05:36:50.553Z,5.28
2022-12-31T05:39:17.944Z,6.57
2022-12-31T05:41:44.587Z,2.00
2022-12-31T05:44:11.957Z,2.08
2022-12-31T05:46:38.614Z,4.50
2022-12-31T05:49:05.940Z,2.58
2022-12-31T05:51:32.603Z,3.30
2022-12-31T05:53:59.944Z,3.03
2022-12-31T05:56:26.603Z,1.42
2022-12-31T05:58:53.896Z,5.70
2022-12-31T06:01:20.547Z,3.25
2022-12-31T06:03:48.294Z,4.85
2022-12-31T06:06:14.927Z,2.17
2022-12-31T06:08:42.251Z,3.40
2022-12-31T06:11:08.869Z,6.43
2022-12-31T06:13:36.178Z,2.15
2022-12-31T06:16:10.473Z,3.83
2022-12-31T06:18:37.436Z,8.60
2022-12-31T06:21:04.670Z,3.35
2022-12-31T06:23:32.359Z,4.43
2022-12-31T06:26:04.066Z,5.00
2022-12-31T06:28:31.491Z,3.08
2022-12-31T06:31:03.079Z,3.10
2022-12-31T06:33:30.482Z,1.75
2022-12-31T06:35:59.229Z,3.00
2022-12-31T06:38:28.444Z,9.52
2022-12-31T06:40:55.507Z,4.32
2022-12-31T06:43:23.339Z,4.35
2022-12-31T06:45:49.983Z,6.45
2022-12-31T06:48:17.339Z,3.88
2022-12-31T06:50:44.050Z,5.78
2022-12-31T06:53:12.038Z,3.40
2022-12-31T06:55:38.934Z,5.60
2022-12-31T06:58:06.556Z,3.47
2022-12-31T07:00:33.536Z,3.72
2022-12-31T07:03:19.499Z,3.15
2022-12-31T07:05:58.362Z,7.57
2022-12-31T07:08:34.336Z,7.05
2022-12-31T07:11:15.236Z,9.88
2022-12-31T07:13:51.368Z,5.10
2022-12-31T07:16:42.880Z,2.42
2022-12-31T07:19:41.281Z,6.75
2022-12-31T07:22:15.143Z,3.20
2022-12-31T07:24:44.541Z,3.53
2022-12-31T07:27:29.973Z,4.00
2022-12-31T07:29:57.253Z,7.03
2022-12-31T07:32:32.688Z,3.15
2022-12-31T07:35:26.282Z,3.83
2022-12-31T07:38:19.904Z,4.15
2022-12-31T07:41:09.443Z,4.15
2022-12-31T07:44:11.764Z,4.05
2022-12-31T07:46:56.733Z,6.97
2022-12-31T07:49:26.270Z,5.28
2022-12-31T07:51:53.357Z,3.05
2022-12-31T07:54:21.034Z,9.95
2022-12-31T07:56:48.409Z,3.22
2022-12-31T07:59:27.559Z,6.55
2022-12-31T08:02:07.072Z,4.05
2022-12-31T08:05:01.716Z,6.68
2022-12-31T08:08:01.666Z,4.40
2022-12-31T08:10:38.834Z,2.38
2022-12-31T08:13:11.386Z,3.15
2022-12-31T08:15:41.626Z,6.28
2022-12-31T08:18:08.955Z,6.57
2022-12-31T08:20:45.001Z,8.45
2022-12-31T08:23:28.621Z,2.85
2022-12-31T08:26:21.783Z,2.58
2022-12-31T08:29:01.384Z,5.65
2022-12-31T08:31:47.676Z,7.78
2022-12-31T08:34:26.492Z,6.55
2022-12-31T08:37:06.354Z,4.20
2022-12-31T08:39:51.387Z,3.63
2022-12-31T08:42:41.190Z,5.53
2022-12-31T08:45:24.836Z,8.90
2022-12-31T08:48:13.195Z,5.28
2022-12-31T08:50:40.159Z,1.50
2022-12-31T08:53:07.813Z,5.05
2022-12-31T08:55:34.971Z,5.07
2022-12-31T08:58:20.467Z,4.47
2022-12-31T09:00:49.895Z,4.85
2022-12-31T09:03:26.178Z,9.05
2022-12-31T09:06:02.520Z,4.63
2022-12-31T09:08:45.622Z,6.90
2022-12-31T09:11:42.495Z,6.25
2022-12-31T09:14:43.483Z,5.07
2022-12-31T09:17:15.828Z,5.18
2022-12-31T09:19:43.140Z,6.03
2022-12-31T09:22:10.884Z,4.03
2022-12-31T09:24:38.131Z,4.38
2022-12-31T09:27:13.747Z,3.15
2022-12-31T09:30:04.863Z,4.13
2022-12-31T09:33:01.504Z,6.03
2022-12-31T09:35:28.949Z,5.03
2022-12-31T09:38:01.795Z,6.78
2022-12-31T09:40:48.469Z,5.15
2022-12-31T09:43:30.232Z,5.68
2022-12-31T09:46:06.883Z,8.15
2022-12-31T09:48:52.022Z,8.10
2022-12-31T09:51:27.840Z,3.30
2022-12-31T09:54:39.667Z,5.13
2022-12-31T09:57:17.781Z,10.07
2022-12-31T09:59:57.160Z,4.28
2022-12-31T10:02:59.442Z,4.95
2022-12-31T10:05:39.052Z,10.68
2022-12-31T10:08:35.564Z,4.57
2022-12-31T10:11:28.671Z,7.35
2022-12-31T10:14:27.547Z,8.82
2022-12-31T10:17:05.793Z,9.10
2022-12-31T10:19:52.247Z,8.20
2022-12-31T10:22:40.787Z,5.07
2022-12-31T10:25:39.428Z,6.63
2022-12-31T10:28:30.329Z,5.72
2022-12-31T10:31:16.364Z,7.25
2022-12-31T10:34:13.718Z,6.20
2022-12-31T10:36:46.292Z,6.38
2022-12-31T10:42:20.240Z,6.13
2022-12-31T10:44:47.476Z,4.25
2022-12-31T10:47:29.361Z,6.82
2022-12-31T10:50:16.499Z,9.43
2022-12-31T10:53:11.758Z,6.60
2022-12-31T10:56:03.480Z,8.32
2022-12-31T10:58:48.939Z,7.80
2022-12-31T11:01:42.362Z,7.88
2022-12-31T11:04:27.588Z,6.70
2022-12-31T11:06:57.296Z,6.53
2022-12-31T11:10:01.693Z,9.80
2022-12-31T11:12:46.884Z,9.43
2022-12-31T11:15:30.365Z,6.28
2022-12-31T11:18:20.382Z,11.00
2022-12-31T11:20:50.736Z,14.02
2022-12-31T11:23:35.445Z,11.70
2022-12-31T11:26:15.809Z,17.80
2022-12-31T11:29:07.929Z,18.70
2022-12-31T11:31:58.327Z,5.00
2022-12-31T11:34:48.017Z,4.85
2022-12-31T11:37:40.162Z,5.50
2022-12-31T11:40:28.907Z,4.15
2022-12-31T11:43:14.908Z,13.65
2022-12-31T11:46:06.930Z,13.35
2022-12-31T11:48:50.245Z,10.90
2022-12-31T11:51:50.220Z,10.18
2022-12-31T11:54:20.110Z,10.18
2022-12-31T11:57:34.022Z,8.68
2022-12-31T12:00:19.126Z,6.63
2022-12-31T12:02:51.667Z,7.45
2022-12-31T12:07:51.509Z,8.40
2022-12-31T12:10:35.567Z,9.35
2022-12-31T12:13:28.366Z,11.25
2022-12-31T12:16:02.307Z,11.38
2022-12-31T12:18:33.281Z,5.53
2022-12-31T12:21:10.950Z,7.25
2022-12-31T12:23:39.218Z,8.63
2022-12-31T12:26:07.804Z,5.45
2022-12-31T12:28:45.796Z,9.40
2022-12-31T12:31:22.870Z,5.20
2022-12-31T12:33:51.782Z,6.43
2022-12-31T12:36:21.667Z,5.10
2022-12-31T12:38:48.416Z,5.15
2022-12-31T12:41:23.706Z,12.45
2022-12-31T12:44:01.106Z,5.93
2022-12-31T12:46:40.574Z,5.35
2022-12-31T12:49:29.546Z,8.80
2022-12-31T12:52:19.315Z,7.13
2022-12-31T12:55:10.201Z,9.50
2022-12-31T12:58:12.874Z,8.20
2022-12-31T13:01:20.863Z,7.25
2022-12-31T13:07:19.487Z,5.78
2022-12-31T13:10:24.230Z,10.23
2022-12-31T13:15:55.379Z,10.02
2022-12-31T13:18:37.731Z,8.05
2022-12-31T13:21:20.428Z,12.38
2022-12-31T13:24:12.754Z,7.13
2022-12-31T13:26:56.939Z,4.75
2022-12-31T13:29:27.670Z,6.88
2022-12-31T13:31:56.846Z,7.60
2022-12-31T13:34:28.970Z,7.68
2022-12-31T13:37:02.391Z,4.80
2022-12-31T13:39:32.279Z,4.75
2022-12-31T13:42:21.146Z,6.80
2022-12-31T13:44:59.338Z,7.75
2022-12-31T13:47:33.959Z,12.27
2022-12-31T13:50:19.303Z,7.30
2022-12-31T13:52:58.054Z,10.85
2022-12-31T13:55:33.449Z,11.02
2022-12-31T13:58:31.078Z,8.57
2022-12-31T14:01:07.127Z,10.88
2022-12-31T14:03:58.453Z,7.35
2022-12-31T14:06:31.565Z,7.50
2022-12-31T14:08:59.570Z,13.13
2022-12-31T14:12:08.979Z,8.40
2022-12-31T14:15:12.146Z,11.10
2022-12-31T14:17:52.235Z,8.90
2022-12-31T14:20:39.175Z,12.68
2022-12-31T14:23:25.428Z,12.40
2022-12-31T14:26:03.562Z,6.68
2022-12-31T14:28:47.026Z,9.40
2022-12-31T14:31:34.246Z,20.67
2022-12-31T14:34:30.619Z,8.68
2022-12-31T14:37:16.395Z,12.85
2022-12-31T14:40:20.052Z,8.05
2022-12-31T14:45:53.102Z,6.95
2022-12-31T14:48:38.027Z,10.10
2022-12-31T14:51:05.896Z,9.88
2022-12-31T14:53:32.676Z,10.65
2022-12-31T14:56:27.076Z,9.05
2022-12-31T14:59:01.841Z,10.13
2022-12-31T15:01:29.929Z,8.80
2022-12-31T15:03:58.079Z,7.75
2022-12-31T15:06:41.173Z,6.50
2022-12-31T15:09:39.537Z,7.55
2022-12-31T15:12:28.427Z,10.30
2022-12-31T15:15:10.618Z,11.10
2022-12-31T15:18:00.598Z,7.45
2022-12-31T15:20:54.906Z,9.00
2022-12-31T15:23:24.878Z,12.30
2022-12-31T15:25:59.807Z,8.57
2022-12-31T15:28:36.368Z,11.90
2022-12-31T15:31:18.919Z,9.15
2022-12-31T15:34:06.589Z,11.40
2022-12-31T15:36:39.600Z,11.57
2022-12-31T15:39:23.009Z,11.32
2022-12-31T15:42:35.684Z,7.43
2022-12-31T15:44:55.161Z,7.80
2022-12-31T15:47:31.276Z,9.02
2022-12-31T15:50:12.695Z,6.47
2022-12-31T15:52:42.187Z,6.18
2022-12-31T15:55:22.931Z,8.40
2022-12-31T15:57:51.414Z,7.97
2022-12-31T16:00:22.125Z,6.32
2022-12-31T16:02:55.239Z,8.25
2022-12-31T16:05:26.281Z,8.80
2022-12-31T16:07:58.428Z,4.45
2022-12-31T16:10:31.297Z,8.25
2022-12-31T16:12:59.902Z,4.60
2022-12-31T16:15:30.632Z,7.38
2022-12-31T16:18:03.994Z,10.05
2022-12-31T16:20:34.016Z,6.07
2022-12-31T16:23:03.426Z,5.78
2022-12-31T16:25:33.308Z,11.30
2022-12-31T16:28:06.909Z,6.25
2022-12-31T16:30:37.785Z,9.30
2022-12-31T16:33:07.236Z,4.45
2022-12-31T16:35:36.848Z,7.22
2022-12-31T16:38:19.128Z,8.02
2022-12-31T16:41:20.106Z,6.15
2022-12-31T16:43:49.340Z,6.30
2022-12-31T16:46:27.902Z,6.32
2022-12-31T16:49:03.069Z,8.07
2022-12-31T16:51:33.026Z,8.60
2022-12-31T16:54:02.286Z,4.97
2022-12-31T16:56:37.457Z,7.95
2022-12-31T16:59:34.721Z,9.02
2022-12-31T17:02:10.208Z,6.32
2022-12-31T17:04:41.475Z,5.80
2022-12-31T17:07:31.664Z,4.45
2022-12-31T17:10:07.654Z,4.90
2022-12-31T17:13:17.399Z,3.90
2022-12-31T17:15:41.358Z,6.75
2022-12-31T17:18:23.012Z,8.52
2022-12-31T17:20:52.819Z,4.53
2022-12-31T17:23:24.811Z,7.60
2022-12-31T17:26:01.521Z,6.35
2022-12-31T17:28:37.083Z,6.53
2022-12-31T17:31:26.532Z,7.28
2022-12-31T17:34:04.178Z,9.93
2022-12-31T17:36:34.972Z,5.95
2022-12-31T17:39:19.986Z,12.15
2022-12-31T17:41:49.815Z,8.48
2022-12-31T17:44:28.787Z,10.30
2022-12-31T17:46:56.819Z,5.70
2022-12-31T17:49:29.591Z,7.97
2022-12-31T17:52:00.509Z,5.07
2022-12-31T17:54:27.604Z,5.93
2022-12-31T17:56:55.467Z,11.02
2022-12-31T17:59:29.785Z,10.55
2022-12-31T18:02:05.635Z,6.50
2022-12-31T18:04:34.806Z,4.47
2022-12-31T18:07:02.617Z,8.77
2022-12-31T18:09:29.816Z,9.30
2022-12-31T18:12:01.504Z,7.07
2022-12-31T18:14:29.001Z,10.73
2022-12-31T18:16:56.894Z,9.13
2022-12-31T18:19:54.220Z,9.52
2022-12-31T18:22:18.204Z,6.25
2022-12-31T18:24:45.514Z,8.07
2022-12-31T18:27:20.233Z,9.13
2022-12-31T18:29:47.786Z,13.38
2022-12-31T18:32:23.216Z,8.95
2022-12-31T18:34:50.880Z,10.95
2022-12-31T18:37:22.174Z,9.52
2022-12-31T18:39:49.631Z,11.07
2022-12-31T18:42:19.450Z,7.78
2022-12-31T18:44:47.033Z,11.95
2022-12-31T18:47:19.192Z,10.50
2022-12-31T18:49:48.721Z,13.40
2022-12-31T18:52:22.235Z,8.18
2022-12-31T18:57:17.427Z,6.93
2022-12-31T18:59:44.551Z,7.35
2022-12-31T19:02:21.050Z,15.52
2022-12-31T19:04:48.605Z,8.45
2022-12-31T19:07:16.594Z,14.75
2022-12-31T19:16:00.554Z,7.85
2022-12-31T19:18:28.408Z,8.88
2022-12-31T19:20:55.740Z,9.85
2022-12-31T19:23:26.643Z,10.07
2022-12-31T19:25:55.771Z,13.23
2022-12-31T19:28:27.693Z,16.25
2022-12-31T19:30:54.975Z,13.82
2022-12-31T19:33:22.920Z,12.15
2022-12-31T19:35:50.200Z,16.58
2022-12-31T19:38:20.766Z,13.63
2022-12-31T19:40:48.964Z,14.60
2022-12-31T19:43:18.735Z,15.57
2022-12-31T19:45:46.513Z,8.40
2022-12-31T19:48:17.178Z,17.35
2022-12-31T19:50:54.791Z,12.32
2022-12-31T19:53:24.979Z,11.43
2022-12-31T19:55:54.868Z,17.40
2022-12-31T19:58:27.872Z,11.13
2022-12-31T20:01:02.708Z,11.63
2022-12-31T20:03:32.984Z,11.52
2022-12-31T20:06:11.142Z,22.08
2022-12-31T20:08:39.777Z,8.13
2022-12-31T20:11:11.301Z,10.63
2022-12-31T20:13:40.718Z,12.13
2022-12-31T20:16:09.322Z,12.80
2022-12-31T20:18:38.917Z,13.02
2022-12-31T20:21:13.401Z,14.82
2022-12-31T20:23:41.225Z,8.38
2022-12-31T20:26:08.726Z,13.23
2022-12-31T20:28:37.423Z,21.92
2022-12-31T20:31:11.656Z,18.30
2022-12-31T20:33:39.792Z,11.88
2022-12-31T20:36:09.443Z,19.77
2022-12-31T20:38:55.048Z,20.23
2022-12-31T20:41:23.440Z,11.38
2022-12-31T20:43:50.972Z,14.80
2022-12-31T20:46:26.455Z,11.82
2022-12-31T20:48:56.268Z,10.82
2022-12-31T20:51:25.371Z,10.82
2022-12-31T20:53:57.240Z,11.18
2022-12-31T20:56:26.939Z,21.00
2022-12-31T20:58:54.058Z,11.73
2022-12-31T21:01:22.369Z,14.32
2022-12-31T21:04:06.692Z,10.40
2022-12-31T21:06:35.868Z,15.73
2022-12-31T21:09:05.942Z,10.02
2022-12-31T21:12:12.361Z,11.80
2022-12-31T21:14:44.591Z,16.42
2022-12-31T21:17:12.695Z,16.17
2022-12-31T21:19:39.669Z,12.63
2022-12-31T21:22:07.142Z,9.77
2022-12-31T21:24:34.217Z,11.02
2022-12-31T21:27:01.970Z,12.05
2022-12-31T21:29:34.344Z,10.02
2022-12-31T21:32:02.710Z,13.07
2022-12-31T21:34:29.385Z,12.82
2022-12-31T21:36:56.710Z,11.38
2022-12-31T21:39:23.368Z,16.80
2022-12-31T21:41:53.823Z,9.50
2022-12-31T21:44:22.928Z,15.60
2022-12-31T21:47:33.112Z,12.38
2022-12-31T21:49:42.320Z,13.52
2022-12-31T21:52:28.733Z,15.00
2022-12-31T21:55:15.828Z,17.55
2022-12-31T21:58:24.381Z,8.48
2022-12-31T22:00:54.060Z,15.98
2022-12-31T22:03:24.399Z,13.40
2022-12-31T22:06:12.308Z,12.43
2022-12-31T22:08:41.176Z,10.75
2022-12-31T22:11:08.245Z,13.25
2022-12-31T22:13:36.226Z,10.50
2022-12-31T22:16:05.594Z,14.95
2022-12-31T22:18:41.099Z,8.55
2022-12-31T22:21:19.300Z,6.82
2022-12-31T22:23:52.999Z,11.25
2022-12-31T22:26:24.507Z,12.07
2022-12-31T22:28:52.772Z,13.90
2022-12-31T22:31:22.594Z,9.98
2022-12-31T22:33:50.073Z,13.77
2022-12-31T22:36:22.295Z,13.75
2022-12-31T22:38:51.102Z,14.93
2022-12-31T22:41:22.029Z,13.15
2022-12-31T22:43:58.487Z,9.00
2022-12-31T22:46:29.646Z,17.13
2022-12-31T22:48:58.862Z,13.23
2022-12-31T22:51:30.519Z,15.90
2022-12-31T22:54:13.917Z,13.77
2022-12-31T22:56:41.108Z,18.88
2022-12-31T22:59:08.591Z,12.55
2022-12-31T23:01:35.394Z,19.60
2022-12-31T23:04:03.440Z,52.35
2022-12-31T23:06:30.179Z,26.10
2022-12-31T23:09:16.067Z,21.73
2022-12-31T23:11:43.419Z,19.98
2022-12-31T23:14:35.340Z,29.98
2022-12-31T23:17:29.395Z,34.28
2022-12-31T23:20:16.398Z,33.92
2022-12-31T23:23:02.152Z,39.15
2022-12-31T23:25:32.147Z,33.38
2022-12-31T23:27:59.400Z,29.90
2022-12-31T23:30:26.074Z,20.77
2022-12-31T23:32:53.392Z,24.35
2022-12-31T23:35:20.069Z,28.50
2022-12-31T23:37:47.012Z,19.85
2022-12-31T23:40:20.862Z,12.95
2022-12-31T23:42:49.817Z,21.65
2022-12-31T23:45:17.157Z,23.88
2022-12-31T23:47:43.835Z,30.27
2022-12-31T23:50:11.172Z,20.20
2022-12-31T23:52:37.799Z,16.90
2022-12-31T23:55:05.382Z,21.42
2022-12-31T23:57:32.024Z,27.92
